地図

経路データ

SID SEASON NUMBER BASIN SUBBASIN NAME ISO_TIME NATURE LAT LON WMO_WIND WMO_PRES WMO_AGENCY TRACK_TYPE DIST2LAND LANDFALL IFLAG USA_AGENCY USA_ATCF_ID USA_LAT USA_LON USA_RECORD USA_STATUS USA_WIND USA_PRES USA_SSHS USA_R34_NE USA_R34_SE USA_R34_SW USA_R34_NW USA_R50_NE USA_R50_SE USA_R50_SW USA_R50_NW USA_R64_NE USA_R64_SE USA_R64_SW USA_R64_NW USA_POCI USA_ROCI USA_RMW USA_EYE TOKYO_LAT TOKYO_LON TOKYO_GRADE TOKYO_WIND TOKYO_PRES TOKYO_R50_DIR TOKYO_R50_LONG TOKYO_R50_SHORT TOKYO_R30_DIR TOKYO_R30_LONG TOKYO_R30_SHORT TOKYO_LAND CMA_LAT CMA_LON CMA_CAT CMA_WIND CMA_PRES HKO_LAT HKO_LON HKO_CAT HKO_WIND HKO_PRES NEWDELHI_LAT NEWDELHI_LON NEWDELHI_GRADE NEWDELHI_WIND NEWDELHI_PRES NEWDELHI_CI NEWDELHI_DP NEWDELHI_POCI REUNION_LAT REUNION_LON REUNION_TYPE REUNION_WIND REUNION_PRES REUNION_TNUM REUNION_CI REUNION_RMW REUNION_R34_NE REUNION_R34_SE REUNION_R34_SW REUNION_R34_NW REUNION_R50_NE REUNION_R50_SE REUNION_R50_SW REUNION_R50_NW REUNION_R64_NE REUNION_R64_SE REUNION_R64_SW REUNION_R64_NW BOM_LAT BOM_LON BOM_TYPE BOM_WIND BOM_PRES BOM_TNUM BOM_CI BOM_RMW BOM_R34_NE BOM_R34_SE BOM_R34_SW BOM_R34_NW BOM_R50_NE BOM_R50_SE BOM_R50_SW BOM_R50_NW BOM_R64_NE BOM_R64_SE BOM_R64_SW BOM_R64_NW BOM_ROCI BOM_POCI BOM_EYE BOM_POS_METHOD BOM_PRES_METHOD NADI_LAT NADI_LON NADI_CAT NADI_WIND NADI_PRES WELLINGTON_LAT WELLINGTON_LON WELLINGTON_WIND WELLINGTON_PRES DS824_LAT DS824_LON DS824_STAGE DS824_WIND DS824_PRES TD9636_LAT TD9636_LON TD9636_STAGE TD9636_WIND TD9636_PRES TD9635_LAT TD9635_LON TD9635_WIND TD9635_PRES TD9635_ROCI NEUMANN_LAT NEUMANN_LON NEUMANN_CLASS NEUMANN_WIND NEUMANN_PRES MLC_LAT MLC_LON MLC_CLASS MLC_WIND MLC_PRES USA_GUST BOM_GUST BOM_GUST_PER REUNION_GUST REUNION_GUST_PER USA_SEAHGT USA_SEARAD_NE USA_SEARAD_SE USA_SEARAD_SW USA_SEARAD_NW STORM_SPEED STORM_DIR
1993263N11168 1993 72 WP MM CECIL 1993-09-20 06:00:00 NR 11.3000 167.500 main 2328 2300 O_____________ jtwc_wp WP231993 11.3000 167.500 10 -1 13 273
1993263N11168 1993 72 WP MM CECIL 1993-09-20 09:00:00 NR 11.3352 166.862 main 2300 2267 P_____________ WP231993 11.3352 166.862 12 -1 13 274
1993263N11168 1993 72 WP MM CECIL 1993-09-20 12:00:00 NR 11.4000 166.200 main 2267 2225 O_____________ jtwc_wp WP231993 11.4000 166.200 15 -1 14 278
1993263N11168 1993 72 WP MM CECIL 1993-09-20 15:00:00 NR 11.5199 165.500 main 2225 2195 P_____________ WP231993 11.5199 165.500 15 -1 14 282
1993263N11168 1993 72 WP MM CECIL 1993-09-20 18:00:00 NR 11.7000 164.800 main 2195 2171 O_____________ jtwc_wp WP231993 11.7000 164.800 15 -1 14 287
1993263N11168 1993 72 WP MM CECIL 1993-09-20 21:00:00 NR 11.9122 164.150 main 2166 2150 P_____________ WP231993 11.9122 164.150 15 -1 14 291
1993263N11168 1993 72 WP MM CECIL 1993-09-21 00:00:00 NR 12.2000 163.500 main 2152 2152 O_____________ jtwc_wp WP231993 12.2000 163.500 15 -1 12 305
1993263N11168 1993 72 WP MM CECIL 1993-09-21 03:00:00 NR 12.5936 163.165 main 2169 2146 P_____________ WP231993 12.5936 163.165 15 -1 16 300
1993263N11168 1993 72 WP MM CECIL 1993-09-21 06:00:00 NR 13.0000 162.100 main 2140 2013 O_____________ jtwc_wp WP231993 13.0000 162.100 15 -1 41 280
1993263N11168 1993 72 WP MM CECIL 1993-09-21 09:00:00 NR 13.3110 158.979 main 2003 1900 P_____________ WP231993 13.3110 158.979 15 -1 61 275
1993263N11168 1993 72 WP MM CECIL 1993-09-21 12:00:00 NR 13.5000 155.900 main 1897 1881 O_____________ jtwc_wp WP231993 13.5000 155.900 15 -1 39 274
1993263N11168 1993 72 WP MM CECIL 1993-09-21 15:00:00 NR 13.6157 154.960 main 1881 1878 P_____________ WP231993 13.6157 154.960 17 -1 11 281
1993263N11168 1993 72 WP MM CECIL 1993-09-21 18:00:00 NR 13.7000 154.800 main 1887 1882 O_____________ jtwc_wp WP231993 13.7000 154.800 20 -1 7 286
1993263N11168 1993 72 WP MM CECIL 1993-09-21 21:00:00 NR 13.8074 154.293 main 1886 1882 P_____________ WP231993 13.8074 154.293 20 -1 10 282
1993263N11168 1993 72 WP MM CECIL 1993-09-22 00:00:00 NR 13.9000 153.800 main 1887 1881 O_____________ jtwc_wp WP231993 13.9000 153.800 20 -1 10 279
1993263N11168 1993 72 WP MM CECIL 1993-09-22 03:00:00 NR 13.9649 153.292 main 1889 1882 P_____________ WP231993 13.9649 153.292 20 -1 10 276
1993263N11168 1993 72 WP MM CECIL 1993-09-22 06:00:00 NR 14.0000 152.800 main 1882 1878 O_____________ jtwc_wp WP231993 14.0000 152.800 20 -1 9 273
1993263N11168 1993 72 WP MM CECIL 1993-09-22 09:00:00 NR 14.0074 152.335 main 1877 1827 P_____________ WP231993 14.0074 152.335 22 -1 10 243
1993263N11168 1993 72 WP MM CECIL 1993-09-22 12:00:00 NR 13.5600 151.920 main 1827 1797 O__O__________ jtwc_wp WP231993 14.0000 151.900 25 -1 11.8000 152.000 TD 25 1005 10 232
1993263N11168 1993 72 WP MM CECIL 1993-09-22 15:00:00 NR 13.4033 151.541 main 1794 1786 P__P__________ WP231993 14.0075 151.478 25 -1 12.1950 151.668 TD 27 1002 8 264
1993263N11168 1993 72 WP MM CECIL 1993-09-22 18:00:00 TS 13.4750 151.062 1004 tokyo main 1794 1787 OO_O__________ jtwc_wp WP231993 14.0000 151.100 25 -1 14.0000 150.200 2 1004 0 0 0 12.6000 151.300 TD 30 1000 9 282
1993263N11168 1993 72 WP MM CECIL 1993-09-22 21:00:00 TS 13.5870 150.685 main 1796 1791 PP_P__________ WP231993 13.9574 150.777 27 -1 13.9900 150.100 2 1004 0 0 13.0151 150.885 TD 32 997 8 291
1993263N11168 1993 72 WP MM CECIL 1993-09-23 00:00:00 TS 13.7417 150.333 1004 tokyo main 1798 1798 OOOO__________ jtwc_wp WP231993 13.9000 150.500 30 -1 14.0000 150.000 2 1004 0 0 0 13.7000 150.000 1 23 1004 13.4000 150.500 TS 35 995 6 294
1993263N11168 1993 72 WP MM CECIL 1993-09-23 03:00:00 TS 13.8435 150.096 main 1806 1806 PPPP__________ WP231993 13.8349 150.242 30 -1 14.0425 149.900 2 1002 0 0 13.6900 149.905 1 26 1002 13.7298 150.242 TS 35 995 4 292
1993263N11168 1993 72 WP MM CECIL 1993-09-23 06:00:00 TS 13.9133 149.907 1000 tokyo main 1813 1811 OOOO__________ jtwc_wp WP231993 13.8000 150.000 30 -1 14.1000 149.800 2 1000 0 0 0 13.7000 149.800 1 29 1000 14.0000 150.000 TS 35 995 4 291
1993263N11168 1993 72 WP MM CECIL 1993-09-23 09:00:00 TS 14.0025 149.679 main 1821 1819 PPPP__________ WP231993 13.8275 149.735 32 -1 14.1575 149.685 2 999 0 0 13.7425 149.685 1 33 999 14.2827 149.613 TS 35 995 4 292
1993263N11168 1993 72 WP MM CECIL 1993-09-23 12:00:00 TS 14.0750 149.500 998 tokyo main 1829 1817 OOOO__________ jtwc_wp WP231993 13.9000 149.500 35 0 14.2000 149.600 2 998 0 0 0 13.8000 149.600 2 38 998 14.4000 149.300 TS 35 995 2 274
1993263N11168 1993 72 WP MM CECIL 1993-09-23 15:00:00 TS 14.0200 149.444 main 1817 1817 PPPP__________ WP231993 13.9550 149.327 35 0 14.1925 149.607 2 997 0 0 13.8125 149.600 2 38 998 14.1199 149.240 TS 35 995 1 236
1993263N11168 1993 72 WP MM CECIL 1993-09-23 18:00:00 TS 14.0250 149.425 35 996 tokyo main 1817 1817 OOOO__________ jtwc_wp WP231993 14.1000 149.200 35 0 14.2000 149.600 3 35 996 0 9 90 90 0 13.9000 149.600 2 38 998 13.9000 149.300 TS 35 995 2 346
1993263N11168 1993 72 WP MM CECIL 1993-09-23 21:00:00 TS 14.2506 149.393 main 1850 1850 PPPP__________ WP231993 14.3974 149.115 37 0 14.2399 149.502 3 40 994 0 9 145 145 14.1549 149.560 2 38 996 14.2100 149.395 TS 40 992 6 346
1993263N11168 1993 72 WP MM CECIL 1993-09-24 00:00:00 TS 14.6000 149.275 45 992 tokyo main 1882 1882 OOOO__________ jtwc_wp WP231993 14.8000 149.000 40 0 14.4000 149.300 3 45 992 0 9 200 200 0 14.5000 149.400 2 38 995 14.7000 149.400 TS 45 990 8 331
1993263N11168 1993 72 WP MM CECIL 1993-09-24 03:00:00 TS 14.9520 148.984 main 1923 1922 PPPP__________ WP231993 15.2275 148.780 42 0 14.7326 148.965 3 47 988 0 9 200 200 14.8127 149.023 2 43 990 15.0350 149.167 TS 45 990 10 321
1993263N11168 1993 72 WP MM CECIL 1993-09-24 06:00:00 TS 15.3750 148.625 50 985 tokyo main 1964 1964 OOOO__________ jtwc_wp WP231993 15.7000 148.500 45 0 15.2000 148.600 4 50 985 0 9 200 200 0 15.2000 148.600 3 48 985 15.4000 148.800 TS 45 990 11 326
1993263N11168 1993 72 WP MM CECIL 1993-09-24 09:00:00 TS 15.8492 148.345 main 2007 2007 PPPP__________ WP231993 16.1774 148.222 50 0 15.6898 148.364 4 52 982 0 9 250 250 15.6822 148.372 3 53 982 15.8475 148.422 TS 47 987 12 331
1993263N11168 1993 72 WP MM CECIL 1993-09-24 12:00:00 TS 16.4250 148.025 55 980 tokyo main 2073 2073 OOOO__________ jtwc_wp WP231993 16.7000 147.900 55 0 16.3000 148.100 4 55 980 9 50 50 9 300 300 0 16.3000 148.100 3 58 980 16.4000 148.000 STS 50 985 15 330
1993263N11168 1993 72 WP MM CECIL 1993-09-24 15:00:00 TS 17.1220 147.570 main 2129 2038 PPPP__________ WP231993 17.2700 147.515 60 0 17.0777 147.665 4 57 977 9 60 60 9 300 300 17.0780 147.551 3 58 977 17.0625 147.550 STS 50 985 17 329
1993263N11168 1993 72 WP MM CECIL 1993-09-24 18:00:00 TS 17.8750 147.100 60 975 tokyo main 2027 1953 OOOO__________ jtwc_wp WP231993 17.9000 147.100 65 1 17.9000 147.200 4 60 975 9 70 70 9 300 300 0 17.9000 147.000 3 58 975 17.8000 147.100 STS 50 985 17 332
1993263N11168 1993 72 WP MM CECIL 1993-09-24 21:00:00 TS 18.5873 146.736 main 1939 1855 PPPP__________ WP231993 18.5925 146.692 72 1 18.6073 146.842 4 65 970 9 80 80 9 300 300 18.5996 146.719 3 63 970 18.5499 146.692 STS 52 982 16 335
1993263N11168 1993 72 WP MM CECIL 1993-09-25 00:00:00 TS 19.3000 146.400 70 965 tokyo main 1855 1767 OOOO__________ jtwc_wp WP231993 19.3000 146.300 80 1 19.3000 146.500 5 70 965 9 90 90 9 300 300 0 19.3000 146.500 4 68 965 19.3000 146.300 STS 55 980 16 335
1993263N11168 1993 72 WP MM CECIL 1993-09-25 03:00:00 TS 20.0531 146.018 main 1757 1683 PPPP__________ WP231993 19.9649 145.935 85 2 20.0800 146.093 5 72 962 9 90 90 9 300 300 20.1375 146.165 4 72 962 20.0300 145.878 STS 55 980 16 334
1993263N11168 1993 72 WP MM CECIL 1993-09-25 06:00:00 TS 20.7500 145.650 75 960 tokyo main 1673 1607 OOOO__________ jtwc_wp WP231993 20.6000 145.600 90 2 20.8000 145.700 5 75 960 9 90 90 9 300 300 0 20.9000 145.800 4 77 960 20.7000 145.500 STS 55 980 14 332
1993263N11168 1993 72 WP MM CECIL 1993-09-25 09:00:00 TS 21.3049 145.320 main 1607 1547 PPPP__________ WP231993 21.2225 145.270 92 2 21.3374 145.362 5 75 957 9 100 100 9 300 300 21.3875 145.420 4 82 957 21.2723 145.227 STS 57 977 12 332
1993263N11168 1993 72 WP MM CECIL 1993-09-25 12:00:00 TS 21.8000 145.050 75 955 tokyo main 1547 1488 OOOO__________ jtwc_wp WP231993 21.8000 145.000 95 2 21.8000 145.100 5 75 955 9 110 110 9 300 300 0 21.8000 145.100 5 87 955 21.8000 145.000 STS 60 975 11 336
1993263N11168 1993 72 WP MM CECIL 1993-09-25 15:00:00 TS 22.3212 144.841 main 1484 1428 PPPP__________ WP231993 22.3149 144.805 97 3 22.2849 144.927 5 77 952 9 115 115 9 312 312 22.3349 144.920 5 87 952 22.3501 144.713 STS 62 972 11 343
1993263N11168 1993 72 WP MM CECIL 1993-09-25 18:00:00 TS 22.8500 144.700 80 950 tokyo main 1417 1361 OOOO__________ jtwc_wp WP231993 22.8000 144.700 100 3 22.8000 144.800 5 80 950 9 120 120 9 325 325 0 22.9000 144.800 5 87 950 22.9000 144.500 T 65 970 11 347
1993263N11168 1993 72 WP MM CECIL 1993-09-25 21:00:00 TS 23.4112 144.565 main 1361 1305 PPPP__________ WP231993 23.2999 144.655 100 3 23.4150 144.598 5 80 950 9 120 120 9 325 325 23.4725 144.583 5 87 950 23.4574 144.425 T 67 967 11 353
1993263N11168 1993 72 WP MM CECIL 1993-09-26 00:00:00 TS 23.9500 144.550 80 950 tokyo main 1298 1259 OOOO__________ jtwc_wp WP231993 23.8000 144.700 100 3 24.0000 144.500 5 80 950 9 120 120 9 325 325 0 24.0000 144.500 5 87 950 24.0000 144.500 T 70 965 10 8
1993263N11168 1993 72 WP MM CECIL 1993-09-26 03:00:00 TS 24.4017 144.708 main 1259 1225 PPPP__________ WP231993 24.2924 144.798 100 3 24.4067 144.611 5 80 950 9 120 120 9 325 325 24.4001 144.732 5 87 950 24.5074 144.690 T 70 965 10 24
1993263N11168 1993 72 WP MM CECIL 1993-09-26 06:00:00 TS 24.8500 145.000 80 950 tokyo main 1218 1189 OOOO__________ jtwc_wp WP231993 24.8000 145.000 100 3 24.8000 144.900 5 80 950 9 120 120 9 325 325 0 24.8000 145.100 5 87 950 25.0000 145.000 T 70 965 11 30
1993263N11168 1993 72 WP MM CECIL 1993-09-26 09:00:00 TS 25.3616 145.322 80 950 tokyo main 1179 1147 POPP__________ WP231993 25.3423 145.283 100 3 25.3000 145.300 5 80 950 9 120 120 9 325 325 0 25.3120 145.349 5 87 950 25.4923 145.355 T 70 965 13 31
1993263N11168 1993 72 WP MM CECIL 1993-09-26 12:00:00 TS 25.9250 145.725 80 950 tokyo main 1147 1117 OOOO__________ jtwc_wp WP231993 25.9000 145.700 100 3 25.9000 145.700 5 80 950 9 120 120 9 325 325 0 25.9000 145.700 5 87 950 26.0000 145.800 T 70 965 14 36
1993263N11168 1993 72 WP MM CECIL 1993-09-26 15:00:00 TS 26.4553 146.216 80 950 tokyo main 1112 1093 POPP__________ WP231993 26.3968 146.205 97 3 26.4000 146.100 5 80 950 9 100 100 9 300 300 0 26.5200 146.275 5 82 955 26.5044 146.284 T 67 967 16 43
1993263N11168 1993 72 WP MM CECIL 1993-09-26 18:00:00 TS 27.1000 146.950 75 955 tokyo main 1099 1075 OOOO__________ jtwc_wp WP231993 27.0000 146.900 95 2 27.1000 147.000 5 75 955 9 90 90 9 300 300 0 27.2000 147.000 4 77 960 27.1000 146.900 T 65 970 20 45
1993263N11168 1993 72 WP MM CECIL 1993-09-26 21:00:00 TS 27.8424 147.766 75 955 tokyo main 1081 1058 POPP__________ WP231993 27.8405 147.840 85 2 27.8000 147.800 5 75 955 9 90 90 9 300 300 0 27.8891 147.735 4 77 960 27.8400 147.691 T 65 970 22 43
1993263N11168 1993 72 WP MM CECIL 1993-09-27 00:00:00 TS 28.7250 148.675 70 960 tokyo main 1065 1053 OOOO__________ jtwc_wp WP231993 28.8000 148.900 75 1 28.7000 148.600 5 70 960 9 90 90 9 300 300 0 28.7000 148.600 4 77 960 28.7000 148.600 T 65 970 25 42
1993263N11168 1993 72 WP MM CECIL 1993-09-27 03:00:00 TS 29.6971 149.686 main 1059 1051 PPPP__________ WP231993 29.7190 149.888 75 1 29.7667 149.658 5 70 962 9 85 85 9 300 300 29.6984 149.684 4 77 962 29.6042 149.515 T 65 970 27 42
1993263N11168 1993 72 WP MM CECIL 1993-09-27 06:00:00 TS 30.7500 150.750 70 965 tokyo main 1068 1068 OOOO__________ jtwc_wp WP231993 30.7000 150.900 75 1 30.9000 150.800 5 70 965 9 80 80 9 300 300 0 30.8000 150.800 4 77 965 30.6000 150.500 T 65 970 28 40
1993263N11168 1993 72 WP MM CECIL 1993-09-27 09:00:00 TS 31.8059 151.737 main 1086 1086 PPPP__________ WP231993 31.7384 151.945 75 1 31.9553 151.739 5 67 967 9 80 80 9 300 300 31.8677 151.691 4 72 967 31.6620 151.572 T 60 975 28 38
1993263N11168 1993 72 WP MM CECIL 1993-09-27 12:00:00 TS 32.9333 152.780 65 970 tokyo main 1133 1130 OOOO__________ jtwc_wp WP231993 32.9000 153.100 75 1 33.0000 152.700 5 65 970 9 80 80 9 300 300 0 33.0000 152.600 4 68 970 32.8000 152.700 STS 55 980 29 39
1993263N11168 1993 72 WP MM CECIL 1993-09-27 15:00:00 TS 34.0914 153.939 main 1195 1195 PPPP__________ WP231993 34.2414 154.426 72 1 33.9115 153.765 5 62 972 9 75 75 9 290 290 34.1723 153.674 4 63 972 33.9894 153.841 STS 50 985 32 40
1993263N11168 1993 72 WP MM CECIL 1993-09-27 18:00:00 TS 35.3846 155.308 60 975 tokyo main 1206 1143 OOOO__________ jtwc_wp WP231993 35.6000 155.900 70 1 35.1000 155.100 4 60 975 9 70 70 9 280 280 0 35.5000 155.000 3 58 975 35.2000 155.000 TS 45 990 37 41
1993263N11168 1993 72 WP MM CECIL 1993-09-27 21:00:00 TS 36.8558 156.878 main 1137 1092 PPP___________ WP231993 36.7892 157.374 62 0 36.8621 156.762 4 977 9 9 36.9160 156.497 3 53 977 TS 43 42
1993263N11168 1993 72 WP MM CECIL 1993-09-28 00:00:00 ET 38.5333 158.900 980 tokyo main 1091 1080 OOO___________ jtwc_wp WP231993 37.9000 159.100 55 0 39.0000 159.000 6 980 0 0 0 38.7000 158.600 9 48 980 53 47
1993263N11168 1993 72 WP MM CECIL 1993-09-28 03:00:00 ET 40.4731 161.866 main 1115 1115 PPP___________ WP231993 38.8563 161.227 55 0 41.3792 162.306 6 981 0 0 41.1837 162.065 9 43 982 58 51
1993263N11168 1993 72 WP MM CECIL 1993-09-28 06:00:00 ET 42.2273 164.845 982 tokyo main 1118 1106 OOO___________ jtwc_wp WP231993 40.0000 163.700 55 0 43.5000 165.500 6 982 0 0 0 43.5000 165.500 9 38 985 49 50
1993263N11168 1993 72 WP MM CECIL 1993-09-28 09:00:00 ET 43.5924 166.893 main 1106 1068 PPP___________ WP231993 41.6455 166.618 55 0 44.8381 166.955 6 982 0 0 44.9949 167.320 9 38 985 39 44
1993263N11168 1993 72 WP MM CECIL 1993-09-28 12:00:00 ET 45.0625 168.562 982 tokyo main 1065 1024 OOO___________ jtwc_wp WP231993 43.5000 169.500 55 0 46.0000 168.000 6 982 0 0 0 46.0000 168.000 9 38 985 42 39
1993263N11168 1993 72 WP MM CECIL 1993-09-28 15:00:00 ET 46.8506 170.645 main 1013 989 PP____________ WP231993 45.3209 171.782 52 0 47.6155 170.077 6 981 0 0 9 46 39
1993263N11168 1993 72 WP MM CECIL 1993-09-28 18:00:00 ET 48.6200 172.740 980 tokyo main 991 990 OO____________ jtwc_wp WP231993 47.1000 173.700 50 0 49.0000 172.500 6 980 0 0 0 38 45
1993263N11168 1993 72 WP MM CECIL 1993-09-28 21:00:00 ET 49.5658 174.714 main 1023 1023 _P____________ WP231993 -1 49.5658 174.714 6 979 0 0 31 63
1993263N11168 1993 72 WP MM CECIL 1993-09-29 00:00:00 ET 50.0000 177.000 978 tokyo main 1021 831 _O____________ -1 50.0000 177.000 6 978 0 0 0 34 67
1993263N11168 1993 72 WP MM CECIL 1993-09-29 03:00:00 ET 50.8677 179.599 main 814 603 _P____________ -1 50.8677 179.599 6 977 0 0 40 60
1993263N11168 1993 72 EP CP CECIL 1993-09-29 06:00:00 ET 52.0000 182.500 main 587 _O____________ -1 52.0000 182.500 6 976 0 0 0 42 58

デジタル台風データ・検索

IBTrACS Databaseについて

本データベースは、米国NOAAが公開する1842年以降の世界の熱帯低気圧のベストトラックデータアーカイブInternational Best Track Archive for Climate Stewardship (IBTrACS)を、ウェブで閲覧しやすい形式に変換したものです。

最終更新日:2021-10-08